sensor_id;sensor_type;location;lat;lon;timestamp;pressure;altitude;pressure_sealevel;temperature;humidity
64679;BME280;51094;53.864;27.676;2023-12-20T00:02:17;97979.59;;;4.46;95.19
64679;BME280;51094;53.864;27.676;2023-12-20T00:04:44;98038.66;;;4.87;95.49
64679;BME280;51094;53.864;27.676;2023-12-20T00:07:12;98046.50;;;4.73;95.05
64679;BME280;51094;53.864;27.676;2023-12-20T00:09:39;97944.47;;;4.20;94.20
64679;BME280;51094;53.864;27.676;2023-12-20T00:12:06;98048.44;;;4.82;95.53
64679;BME280;51094;53.864;27.676;2023-12-20T00:14:33;98004.94;;;4.52;95.19
64679;BME280;51094;53.864;27.676;2023-12-20T00:17:00;98029.06;;;4.64;95.57
64679;BME280;51094;53.864;27.676;2023-12-20T00:19:27;98044.41;;;4.78;95.14
64679;BME280;51094;53.864;27.676;2023-12-20T00:21:54;98009.00;;;4.69;95.77
64679;BME280;51094;53.864;27.676;2023-12-20T00:24:21;98027.72;;;4.84;95.01
64679;BME280;51094;53.864;27.676;2023-12-20T00:26:48;98042.78;;;4.90;94.68
64679;BME280;51094;53.864;27.676;2023-12-20T00:29:15;98037.81;;;4.87;94.75
64679;BME280;51094;53.864;27.676;2023-12-20T00:31:42;97965.59;;;4.50;95.21
64679;BME280;51094;53.864;27.676;2023-12-20T00:34:09;98020.31;;;4.92;94.41
64679;BME280;51094;53.864;27.676;2023-12-20T00:36:36;97967.06;;;4.67;94.86
64679;BME280;51094;53.864;27.676;2023-12-20T00:39:03;98011.66;;;4.93;93.85
64679;BME280;51094;53.864;27.676;2023-12-20T00:41:31;98009.50;;;4.87;94.38
64679;BME280;51094;53.864;27.676;2023-12-20T00:43:58;98000.13;;;4.86;93.97
64679;BME280;51094;53.864;27.676;2023-12-20T00:46:25;98019.38;;;4.80;93.57
64679;BME280;51094;53.864;27.676;2023-12-20T00:48:52;98009.09;;;4.93;93.87
64679;BME280;51094;53.864;27.676;2023-12-20T00:51:20;97996.50;;;4.88;94.13
64679;BME280;51094;53.864;27.676;2023-12-20T00:53:47;98001.44;;;4.91;94.01
64679;BME280;51094;53.864;27.676;2023-12-20T00:56:16;97996.50;;;4.88;93.05
64679;BME280;51094;53.864;27.676;2023-12-20T00:58:43;97986.22;;;4.88;93.86
64679;BME280;51094;53.864;27.676;2023-12-20T01:01:10;97974.97;;;4.89;93.66
64679;BME280;51094;53.864;27.676;2023-12-20T01:03:37;97960.13;;;4.80;94.17
64679;BME280;51094;53.864;27.676;2023-12-20T01:06:05;97978.38;;;4.90;93.63
64679;BME280;51094;53.864;27.676;2023-12-20T01:08:32;97984.25;;;4.92;94.33
64679;BME280;51094;53.864;27.676;2023-12-20T01:11:04;97822.09;;;4.03;94.20
64679;BME280;51094;53.864;27.676;2023-12-20T01:13:31;97983.13;;;4.96;93.60
64679;BME280;51094;53.864;27.676;2023-12-20T01:15:59;97980.03;;;4.91;93.01
64679;BME280;51094;53.864;27.676;2023-12-20T01:18:26;97983.53;;;4.90;93.31
64679;BME280;51094;53.864;27.676;2023-12-20T01:20:53;97950.50;;;4.71;93.76
64679;BME280;51094;53.864;27.676;2023-12-20T01:23:20;98017.00;;;4.90;93.93
64679;BME280;51094;53.864;27.676;2023-12-20T01:25:48;97964.97;;;4.85;93.26
64679;BME280;51094;53.864;27.676;2023-12-20T01:28:15;97936.88;;;4.69;94.24
64679;BME280;51094;53.864;27.676;2023-12-20T01:30:42;97910.63;;;4.51;94.52
64679;BME280;51094;53.864;27.676;2023-12-20T01:33:09;97927.63;;;4.66;93.68
64679;BME280;51094;53.864;27.676;2023-12-20T01:35:36;97926.38;;;4.59;93.63
64679;BME280;51094;53.864;27.676;2023-12-20T01:38:04;97969.50;;;4.81;94.13
64679;BME280;51094;53.864;27.676;2023-12-20T01:40:31;97913.72;;;4.56;94.36
64679;BME280;51094;53.864;27.676;2023-12-20T01:43:08;97956.31;;;4.86;93.94
64679;BME280;51094;53.864;27.676;2023-12-20T01:45:35;97891.16;;;4.47;94.51
64679;BME280;51094;53.864;27.676;2023-12-20T01:48:04;97913.00;;;4.67;94.52
64679;BME280;51094;53.864;27.676;2023-12-20T01:50:35;97942.94;;;4.93;94.34
64679;BME280;51094;53.864;27.676;2023-12-20T01:53:04;97912.47;;;4.75;93.40
64679;BME280;51094;53.864;27.676;2023-12-20T01:55:34;97936.44;;;4.88;93.66
64679;BME280;51094;53.864;27.676;2023-12-20T01:58:02;97930.88;;;4.81;93.68
64679;BME280;51094;53.864;27.676;2023-12-20T02:00:30;97937.06;;;4.79;93.94
64679;BME280;51094;53.864;27.676;2023-12-20T02:03:00;97877.78;;;4.42;94.81
64679;BME280;51094;53.864;27.676;2023-12-20T02:05:33;97943.78;;;4.68;95.00
64679;BME280;51094;53.864;27.676;2023-12-20T02:08:01;97927.28;;;4.84;94.62
64679;BME280;51094;53.864;27.676;2023-12-20T02:10:28;97925.41;;;4.86;94.86
64679;BME280;51094;53.864;27.676;2023-12-20T02:12:56;97920.16;;;4.87;94.42
64679;BME280;51094;53.864;27.676;2023-12-20T02:15:24;97873.16;;;4.60;94.41
64679;BME280;51094;53.864;27.676;2023-12-20T02:17:51;97922.63;;;4.89;93.79
64679;BME280;51094;53.864;27.676;2023-12-20T02:20:18;97908.16;;;4.75;94.26
64679;BME280;51094;53.864;27.676;2023-12-20T02:22:45;97917.19;;;4.81;94.01
64679;BME280;51094;53.864;27.676;2023-12-20T02:25:12;97906.88;;;4.81;94.16
64679;BME280;51094;53.864;27.676;2023-12-20T02:27:39;97914.00;;;4.77;94.07
64679;BME280;51094;53.864;27.676;2023-12-20T02:30:07;97912.88;;;4.68;94.24
64679;BME280;51094;53.864;27.676;2023-12-20T02:32:34;97895.38;;;4.74;94.54
64679;BME280;51094;53.864;27.676;2023-12-20T02:35:01;97902.44;;;4.83;94.55
64679;BME280;51094;53.864;27.676;2023-12-20T02:37:28;97885.66;;;4.90;94.90
64679;BME280;51094;53.864;27.676;2023-12-20T02:39:55;97876.47;;;4.86;94.55
64679;BME280;51094;53.864;27.676;2023-12-20T02:42:22;97736.63;;;3.99;94.19
64679;BME280;51094;53.864;27.676;2023-12-20T02:44:50;97879.16;;;4.97;94.49
64679;BME280;51094;53.864;27.676;2023-12-20T02:47:17;97834.94;;;4.66;93.18
64679;BME280;51094;53.864;27.676;2023-12-20T02:49:44;97878.13;;;4.87;93.80
64679;BME280;51094;53.864;27.676;2023-12-20T02:52:11;97872.66;;;4.91;94.12
64679;BME280;51094;53.864;27.676;2023-12-20T02:54:38;97880.69;;;4.99;94.87
64679;BME280;51094;53.864;27.676;2023-12-20T02:57:06;97869.56;;;4.99;94.36
64679;BME280;51094;53.864;27.676;2023-12-20T02:59:33;97823.91;;;4.64;93.53
64679;BME280;51094;53.864;27.676;2023-12-20T03:02:00;97875.34;;;4.90;93.32
64679;BME280;51094;53.864;27.676;2023-12-20T03:04:27;97861.56;;;4.78;94.10
64679;BME280;51094;53.864;27.676;2023-12-20T03:06:55;97839.75;;;4.71;94.52
64679;BME280;51094;53.864;27.676;2023-12-20T03:09:22;97868.53;;;4.89;93.46
64679;BME280;51094;53.864;27.676;2023-12-20T03:11:49;97854.63;;;4.91;94.01
64679;BME280;51094;53.864;27.676;2023-12-20T03:14:16;97859.06;;;4.89;94.06
64679;BME280;51094;53.864;27.676;2023-12-20T03:16:47;97831.75;;;4.63;93.53
64679;BME280;51094;53.864;27.676;2023-12-20T03:19:15;97874.31;;;4.80;94.45
64679;BME280;51094;53.864;27.676;2023-12-20T03:21:43;97875.03;;;4.82;94.62
64679;BME280;51094;53.864;27.676;2023-12-20T03:24:10;97861.97;;;4.85;94.48
64679;BME280;51094;53.864;27.676;2023-12-20T03:26:37;97854.66;;;4.79;94.06
64679;BME280;51094;53.864;27.676;2023-12-20T03:29:04;97828.25;;;4.64;94.76
64679;BME280;51094;53.864;27.676;2023-12-20T03:31:31;97846.81;;;4.80;94.97
64679;BME280;51094;53.864;27.676;2023-12-20T03:33:58;97862.03;;;4.96;93.59
64679;BME280;51094;53.864;27.676;2023-12-20T03:36:26;97788.22;;;4.47;93.35
64679;BME280;51094;53.864;27.676;2023-12-20T03:38:53;97839.88;;;4.70;93.12
64679;BME280;51094;53.864;27.676;2023-12-20T03:41:20;97872.06;;;4.88;94.31
64679;BME280;51094;53.864;27.676;2023-12-20T03:43:47;97872.06;;;4.88;94.43
64679;BME280;51094;53.864;27.676;2023-12-20T03:46:14;97837.72;;;4.63;94.17
64679;BME280;51094;53.864;27.676;2023-12-20T03:48:41;97871.63;;;4.94;94.46
64679;BME280;51094;53.864;27.676;2023-12-20T03:51:08;97858.25;;;4.89;93.49
64679;BME280;51094;53.864;27.676;2023-12-20T03:53:36;97799.22;;;4.49;94.05
64679;BME280;51094;53.864;27.676;2023-12-20T03:56:03;97854.75;;;4.90;93.86
64679;BME280;51094;53.864;27.676;2023-12-20T03:58:30;97801.28;;;4.44;93.72
64679;BME280;51094;53.864;27.676;2023-12-20T04:00:58;97866.59;;;4.80;94.06
64679;BME280;51094;53.864;27.676;2023-12-20T04:03:25;97851.09;;;4.68;94.28
64679;BME280;51094;53.864;27.676;2023-12-20T04:05:52;97859.53;;;4.71;95.36
64679;BME280;51094;53.864;27.676;2023-12-20T04:08:19;97855.59;;;4.78;95.38
64679;BME280;51094;53.864;27.676;2023-12-20T04:10:46;97856.16;;;4.94;95.31
64679;BME280;51094;53.864;27.676;2023-12-20T04:13:14;97839.72;;;4.84;94.24
64679;BME280;51094;53.864;27.676;2023-12-20T04:15:41;97841.34;;;4.85;94.65
64679;BME280;51094;53.864;27.676;2023-12-20T04:18:11;97870.41;;;4.87;94.21
64679;BME280;51094;53.864;27.676;2023-12-20T04:20:38;97845.75;;;4.72;95.51
64679;BME280;51094;53.864;27.676;2023-12-20T04:23:05;97862.78;;;4.85;94.94
64679;BME280;51094;53.864;27.676;2023-12-20T04:25:32;97868.44;;;4.90;95.39
64679;BME280;51094;53.864;27.676;2023-12-20T04:27:59;97794.06;;;4.49;95.18
64679;BME280;51094;53.864;27.676;2023-12-20T04:30:26;97846.28;;;4.88;95.38
64679;BME280;51094;53.864;27.676;2023-12-20T04:32:53;97855.88;;;4.86;94.37
64679;BME280;51094;53.864;27.676;2023-12-20T04:35:21;97827.41;;;4.63;94.85
64679;BME280;51094;53.864;27.676;2023-12-20T04:37:48;97868.03;;;4.84;95.82
64679;BME280;51094;53.864;27.676;2023-12-20T04:40:16;97861.75;;;4.88;95.06
64679;BME280;51094;53.864;27.676;2023-12-20T04:42:43;97875.34;;;4.90;95.33
64679;BME280;51094;53.864;27.676;2023-12-20T04:45:10;97869.56;;;4.86;94.83
64679;BME280;51094;53.864;27.676;2023-12-20T04:47:41;97898.84;;;4.85;95.51
64679;BME280;51094;53.864;27.676;2023-12-20T04:50:09;97868.03;;;4.84;94.85
64679;BME280;51094;53.864;27.676;2023-12-20T04:52:39;97878.03;;;4.88;94.99
64679;BME280;51094;53.864;27.676;2023-12-20T04:55:06;97871.94;;;4.89;95.39
64679;BME280;51094;53.864;27.676;2023-12-20T04:57:33;97864.31;;;4.88;94.80
64679;BME280;51094;53.864;27.676;2023-12-20T05:00:00;97862.88;;;4.84;94.73
64679;BME280;51094;53.864;27.676;2023-12-20T05:02:27;97794.75;;;4.27;94.57
64679;BME280;51094;53.864;27.676;2023-12-20T05:04:54;97845.03;;;4.70;95.96
64679;BME280;51094;53.864;27.676;2023-12-20T05:07:22;97854.91;;;4.76;95.41
64679;BME280;51094;53.864;27.676;2023-12-20T05:09:49;97840.06;;;4.66;95.95
64679;BME280;51094;53.864;27.676;2023-12-20T05:12:16;97862.13;;;4.71;95.92
64679;BME280;51094;53.864;27.676;2023-12-20T05:14:43;97831.22;;;4.58;96.24
64679;BME280;51094;53.864;27.676;2023-12-20T05:17:10;97840.78;;;4.68;95.57
64679;BME280;51094;53.864;27.676;2023-12-20T05:19:38;97813.94;;;4.60;96.31
64679;BME280;51094;53.864;27.676;2023-12-20T05:22:05;97847.84;;;4.78;95.71
64679;BME280;51094;53.864;27.676;2023-12-20T05:24:32;97842.44;;;4.70;95.67
64679;BME280;51094;53.864;27.676;2023-12-20T05:26:59;97755.13;;;4.30;96.50
64679;BME280;51094;53.864;27.676;2023-12-20T05:29:26;97843.63;;;4.77;95.58
64679;BME280;51094;53.864;27.676;2023-12-20T05:31:54;97813.22;;;4.45;94.78
64679;BME280;51094;53.864;27.676;2023-12-20T05:34:21;97843.16;;;4.72;95.86
64679;BME280;51094;53.864;27.676;2023-12-20T05:36:48;97816.75;;;4.31;95.31
64679;BME280;51094;53.864;27.676;2023-12-20T05:39:15;97820.22;;;4.56;94.81
64679;BME280;51094;53.864;27.676;2023-12-20T05:41:42;97811.38;;;4.47;95.04
64679;BME280;51094;53.864;27.676;2023-12-20T05:44:09;97794.28;;;4.33;95.79
64679;BME280;51094;53.864;27.676;2023-12-20T05:46:37;97821.47;;;4.50;95.09
64679;BME280;51094;53.864;27.676;2023-12-20T05:49:04;97817.75;;;4.42;95.21
64679;BME280;51094;53.864;27.676;2023-12-20T05:51:31;97829.69;;;4.55;95.77
64679;BME280;51094;53.864;27.676;2023-12-20T05:53:59;97804.38;;;4.49;95.97
64679;BME280;51094;53.864;27.676;2023-12-20T05:56:26;97807.03;;;4.48;96.06
64679;BME280;51094;53.864;27.676;2023-12-20T05:58:53;97773.97;;;4.18;94.88
64679;BME280;51094;53.864;27.676;2023-12-20T06:01:20;97819.50;;;4.41;95.41
64679;BME280;51094;53.864;27.676;2023-12-20T06:03:47;97850.91;;;4.59;95.56
64679;BME280;51094;53.864;27.676;2023-12-20T06:06:14;97841.63;;;4.56;94.96
64679;BME280;51094;53.864;27.676;2023-12-20T06:08:43;97833.38;;;4.64;96.15
64679;BME280;51094;53.864;27.676;2023-12-20T06:11:11;97841.63;;;4.69;95.38
64679;BME280;51094;53.864;27.676;2023-12-20T06:13:38;97857.88;;;4.70;94.73
64679;BME280;51094;53.864;27.676;2023-12-20T06:16:06;97834.84;;;4.55;94.72
64679;BME280;51094;53.864;27.676;2023-12-20T06:18:34;97822.50;;;4.35;93.33
64679;BME280;51094;53.864;27.676;2023-12-20T06:21:04;97856.66;;;4.62;94.30
64679;BME280;51094;53.864;27.676;2023-12-20T06:23:31;97833.03;;;4.32;94.17
64679;BME280;51094;53.864;27.676;2023-12-20T06:25:58;97861.50;;;4.67;94.71
64679;BME280;51094;53.864;27.676;2023-12-20T06:28:25;97835.25;;;4.49;93.79
64679;BME280;51094;53.864;27.676;2023-12-20T06:30:52;97860.56;;;4.68;94.87
64679;BME280;51094;53.864;27.676;2023-12-20T06:33:21;97838.53;;;4.51;94.24
64679;BME280;51094;53.864;27.676;2023-12-20T06:35:49;97852.44;;;4.61;94.03
64679;BME280;51094;53.864;27.676;2023-12-20T06:38:18;97859.22;;;4.75;93.61
64679;BME280;51094;53.864;27.676;2023-12-20T06:40:45;97861.91;;;4.74;92.54
64679;BME280;51094;53.864;27.676;2023-12-20T06:43:12;97844.72;;;4.61;93.43
64679;BME280;51094;53.864;27.676;2023-12-20T06:45:58;97838.22;;;4.68;93.49
64679;BME280;51094;53.864;27.676;2023-12-20T06:48:27;97870.19;;;4.90;91.79
64679;BME280;51094;53.864;27.676;2023-12-20T06:50:54;97892.47;;;4.78;91.87
64679;BME280;51094;53.864;27.676;2023-12-20T06:53:21;97854.09;;;4.62;92.28
64679;BME280;51094;53.864;27.676;2023-12-20T06:55:48;97875.88;;;4.82;92.97
64679;BME280;51094;53.864;27.676;2023-12-20T06:58:15;97880.91;;;4.84;92.17
64679;BME280;51094;53.864;27.676;2023-12-20T07:00:43;97869.63;;;4.74;91.84
64679;BME280;51094;53.864;27.676;2023-12-20T07:03:10;97873.63;;;4.78;92.01
64679;BME280;51094;53.864;27.676;2023-12-20T07:05:38;97874.16;;;4.70;91.86
64679;BME280;51094;53.864;27.676;2023-12-20T07:08:05;97883.69;;;4.81;92.60
64679;BME280;51094;53.864;27.676;2023-12-20T07:10:33;97881.22;;;4.92;92.60
64679;BME280;51094;53.864;27.676;2023-12-20T07:13:00;97840.59;;;4.72;92.21
64679;BME280;51094;53.864;27.676;2023-12-20T07:15:27;97860.41;;;4.82;91.78
64679;BME280;51094;53.864;27.676;2023-12-20T07:17:56;97887.81;;;4.96;90.80
64679;BME280;51094;53.864;27.676;2023-12-20T07:20:23;97885.44;;;4.93;91.30
64679;BME280;51094;53.864;27.676;2023-12-20T07:22:50;97882.13;;;4.91;90.54
64679;BME280;51094;53.864;27.676;2023-12-20T07:25:17;97816.13;;;4.41;90.69
64679;BME280;51094;53.864;27.676;2023-12-20T07:27:44;97885.22;;;4.96;90.38
64679;BME280;51094;53.864;27.676;2023-12-20T07:30:12;97847.59;;;4.70;90.08
64679;BME280;51094;53.864;27.676;2023-12-20T07:32:39;97894.69;;;4.95;90.04
64679;BME280;51094;53.864;27.676;2023-12-20T07:35:06;97864.44;;;4.86;90.61
64679;BME280;51094;53.864;27.676;2023-12-20T07:37:34;97830.75;;;4.77;90.36
64679;BME280;51094;53.864;27.676;2023-12-20T07:40:01;97884.28;;;5.10;90.22
64679;BME280;51094;53.864;27.676;2023-12-20T07:42:30;97842.16;;;4.98;90.33
64679;BME280;51094;53.864;27.676;2023-12-20T07:44:57;97868.81;;;5.10;89.74
64679;BME280;51094;53.864;27.676;2023-12-20T07:47:24;97828.38;;;4.86;89.95
64679;BME280;51094;53.864;27.676;2023-12-20T07:49:52;97873.69;;;5.25;90.89
64679;BME280;51094;53.864;27.676;2023-12-20T07:52:20;97875.31;;;5.26;89.59
64679;BME280;51094;53.864;27.676;2023-12-20T07:54:49;97882.63;;;5.32;88.21
64679;BME280;51094;53.864;27.676;2023-12-20T07:57:16;97886.13;;;5.31;88.58
64679;BME280;51094;53.864;27.676;2023-12-20T07:59:43;97872.03;;;5.24;88.09
64679;BME280;51094;53.864;27.676;2023-12-20T08:02:11;97910.16;;;5.32;88.39
64679;BME280;51094;53.864;27.676;2023-12-20T08:04:38;97889.88;;;5.27;87.92
64679;BME280;51094;53.864;27.676;2023-12-20T08:07:05;97859.81;;;5.15;88.88
64679;BME280;51094;53.864;27.676;2023-12-20T08:09:33;97878.84;;;5.25;88.66
64679;BME280;51094;53.864;27.676;2023-12-20T08:12:01;97814.88;;;4.83;88.71
64679;BME280;51094;53.864;27.676;2023-12-20T08:14:28;97854.38;;;5.07;87.93
64679;BME280;51094;53.864;27.676;2023-12-20T08:16:55;97810.66;;;4.82;88.38
64679;BME280;51094;53.864;27.676;2023-12-20T08:19:22;97869.81;;;5.20;87.91
64679;BME280;51094;53.864;27.676;2023-12-20T08:21:49;97881.59;;;5.35;88.83
64679;BME280;51094;53.864;27.676;2023-12-20T08:24:17;97890.56;;;5.29;87.80
64679;BME280;51094;53.864;27.676;2023-12-20T08:26:44;97888.44;;;5.23;88.36
64679;BME280;51094;53.864;27.676;2023-12-20T08:29:13;97840.31;;;4.87;88.49
64679;BME280;51094;53.864;27.676;2023-12-20T08:31:41;97903.91;;;5.23;87.89
64679;BME280;51094;53.864;27.676;2023-12-20T08:34:08;97907.66;;;5.19;88.76
64679;BME280;51094;53.864;27.676;2023-12-20T08:36:35;97842.06;;;4.87;88.42
64679;BME280;51094;53.864;27.676;2023-12-20T08:39:02;97869.63;;;5.10;88.49
64679;BME280;51094;53.864;27.676;2023-12-20T08:41:32;97890.06;;;5.24;88.06
64679;BME280;51094;53.864;27.676;2023-12-20T08:44:00;97897.69;;;5.26;88.59
64679;BME280;51094;53.864;27.676;2023-12-20T08:46:27;97861.19;;;5.08;88.25
64679;BME280;51094;53.864;27.676;2023-12-20T08:48:54;97805.38;;;4.59;87.88
64679;BME280;51094;53.864;27.676;2023-12-20T08:51:22;97883.72;;;5.17;88.37
64679;BME280;51094;53.864;27.676;2023-12-20T08:53:52;97874.72;;;5.23;88.84
64679;BME280;51094;53.864;27.676;2023-12-20T08:56:19;97881.69;;;5.33;88.31
64679;BME280;51094;53.864;27.676;2023-12-20T08:58:47;97822.28;;;4.87;87.48
64679;BME280;51094;53.864;27.676;2023-12-20T09:01:14;97831.34;;;4.93;87.94
64679;BME280;51094;53.864;27.676;2023-12-20T09:03:42;97881.38;;;5.38;88.96
64679;BME280;51094;53.864;27.676;2023-12-20T09:06:10;97882.63;;;5.32;87.50
64679;BME280;51094;53.864;27.676;2023-12-20T09:08:37;97869.66;;;5.21;87.62
64679;BME280;51094;53.864;27.676;2023-12-20T09:11:04;97856.28;;;4.92;87.81
64679;BME280;51094;53.864;27.676;2023-12-20T09:13:32;97867.69;;;5.01;88.46
64679;BME280;51094;53.864;27.676;2023-12-20T09:15:59;97885.81;;;5.12;88.64
64679;BME280;51094;53.864;27.676;2023-12-20T09:18:27;97876.88;;;5.29;89.09
64679;BME280;51094;53.864;27.676;2023-12-20T09:20:54;97810.75;;;4.93;88.83
64679;BME280;51094;53.864;27.676;2023-12-20T09:23:22;97861.72;;;5.24;88.06
64679;BME280;51094;53.864;27.676;2023-12-20T09:25:49;97887.38;;;5.26;88.32
64679;BME280;51094;53.864;27.676;2023-12-20T09:28:16;97866.78;;;5.26;88.41
64679;BME280;51094;53.864;27.676;2023-12-20T09:30:43;97861.25;;;5.19;88.17
64679;BME280;51094;53.864;27.676;2023-12-20T09:33:12;97872.75;;;5.26;88.31
64679;BME280;51094;53.864;27.676;2023-12-20T09:35:40;97819.91;;;4.97;88.60
64679;BME280;51094;53.864;27.676;2023-12-20T09:38:07;97866.16;;;5.22;88.50
64679;BME280;51094;53.864;27.676;2023-12-20T09:40:36;97862.44;;;5.26;88.85
64679;BME280;51094;53.864;27.676;2023-12-20T09:43:13;97843.44;;;5.16;88.35
64679;BME280;51094;53.864;27.676;2023-12-20T09:45:42;97813.53;;;4.90;88.82
64679;BME280;51094;53.864;27.676;2023-12-20T09:48:12;97854.59;;;5.28;88.90
64679;BME280;51094;53.864;27.676;2023-12-20T09:50:41;97810.81;;;5.04;88.49
64679;BME280;51094;53.864;27.676;2023-12-20T09:53:15;97878.13;;;5.23;89.00
64679;BME280;51094;53.864;27.676;2023-12-20T09:55:43;97841.38;;;5.32;88.71
64679;BME280;51094;53.864;27.676;2023-12-20T09:58:11;97838.47;;;5.37;88.94
64679;BME280;51094;53.864;27.676;2023-12-20T10:00:38;97834.81;;;5.28;87.85
64679;BME280;51094;53.864;27.676;2023-12-20T10:03:06;97836.44;;;5.29;88.15
64679;BME280;51094;53.864;27.676;2023-12-20T10:05:34;97829.25;;;5.22;88.42
64679;BME280;51094;53.864;27.676;2023-12-20T10:08:02;97821.81;;;5.30;89.07
64679;BME280;51094;53.864;27.676;2023-12-20T10:10:30;97826.84;;;5.31;87.93
64679;BME280;51094;53.864;27.676;2023-12-20T10:13:12;97821.69;;;5.31;88.49
64679;BME280;51094;53.864;27.676;2023-12-20T10:15:40;97815.16;;;5.39;88.22
64679;BME280;51094;53.864;27.676;2023-12-20T10:18:09;97816.22;;;5.36;87.44
64679;BME280;51094;53.864;27.676;2023-12-20T10:20:40;97625.34;;;4.21;87.60
64679;BME280;51094;53.864;27.676;2023-12-20T10:23:09;97800.75;;;5.36;87.87
64679;BME280;51094;53.864;27.676;2023-12-20T10:25:36;97712.41;;;4.99;87.90
64679;BME280;51094;53.864;27.676;2023-12-20T10:30:39;97800.69;;;5.49;86.50
64679;BME280;51094;53.864;27.676;2023-12-20T10:33:07;97762.63;;;5.17;87.27
64679;BME280;51094;53.864;27.676;2023-12-20T10:35:39;97803.59;;;5.44;87.17
64679;BME280;51094;53.864;27.676;2023-12-20T10:38:12;97772.00;;;5.18;87.44
64679;BME280;51094;53.864;27.676;2023-12-20T10:40:41;97791.00;;;5.28;88.11
64679;BME280;51094;53.864;27.676;2023-12-20T10:43:08;97677.88;;;4.66;87.92
64679;BME280;51094;53.864;27.676;2023-12-20T10:45:36;97770.16;;;5.31;87.97
64679;BME280;51094;53.864;27.676;2023-12-20T10:48:04;97798.72;;;5.52;87.95
64679;BME280;51094;53.864;27.676;2023-12-20T10:50:31;97800.03;;;5.58;87.23
64679;BME280;51094;53.864;27.676;2023-12-20T10:52:59;97784.50;;;5.47;86.91
64679;BME280;51094;53.864;27.676;2023-12-20T10:55:27;97763.28;;;5.43;86.84
64679;BME280;51094;53.864;27.676;2023-12-20T10:58:08;97669.44;;;4.64;86.87
64679;BME280;51094;53.864;27.676;2023-12-20T11:00:44;97802.34;;;5.50;87.46
64679;BME280;51094;53.864;27.676;2023-12-20T11:03:13;97800.56;;;5.50;87.46
64679;BME280;51094;53.864;27.676;2023-12-20T11:08:26;97790.63;;;5.57;86.38
64679;BME280;51094;53.864;27.676;2023-12-20T11:11:02;97794.97;;;5.56;87.08
64679;BME280;51094;53.864;27.676;2023-12-20T11:14:03;97786.53;;;5.65;86.98
64679;BME280;51094;53.864;27.676;2023-12-20T11:16:38;97793.47;;;5.76;87.03
64679;BME280;51094;53.864;27.676;2023-12-20T11:19:17;97790.31;;;5.73;85.51
64679;BME280;51094;53.864;27.676;2023-12-20T11:21:48;97761.19;;;5.48;85.95
64679;BME280;51094;53.864;27.676;2023-12-20T11:24:15;97729.34;;;5.25;85.93
64679;BME280;51094;53.864;27.676;2023-12-20T11:26:55;97810.94;;;5.73;86.56
64679;BME280;51094;53.864;27.676;2023-12-20T11:31:56;97796.75;;;5.67;85.34
64679;BME280;51094;53.864;27.676;2023-12-20T11:34:27;97745.91;;;5.34;85.34
64679;BME280;51094;53.864;27.676;2023-12-20T11:36:59;97781.59;;;5.51;85.51
64679;BME280;51094;53.864;27.676;2023-12-20T11:39:27;97770.50;;;5.62;85.63
64679;BME280;51094;53.864;27.676;2023-12-20T11:41:56;97784.66;;;5.67;85.59
64679;BME280;51094;53.864;27.676;2023-12-20T11:44:25;97788.06;;;5.68;85.61
64679;BME280;51094;53.864;27.676;2023-12-20T11:46:54;97841.16;;;5.59;85.25
64679;BME280;51094;53.864;27.676;2023-12-20T11:49:25;97758.34;;;5.40;85.31
64679;BME280;51094;53.864;27.676;2023-12-20T11:51:52;97781.47;;;5.53;85.60
64679;BME280;51094;53.864;27.676;2023-12-20T11:54:19;97764.34;;;5.41;85.06
64679;BME280;51094;53.864;27.676;2023-12-20T11:56:47;97764.81;;;5.46;86.22
64679;BME280;51094;53.864;27.676;2023-12-20T11:59:15;97737.47;;;5.32;85.68
64679;BME280;51094;53.864;27.676;2023-12-20T12:01:50;97760.94;;;5.40;86.15
64679;BME280;51094;53.864;27.676;2023-12-20T12:04:18;97774.47;;;5.55;86.13
64679;BME280;51094;53.864;27.676;2023-12-20T12:06:46;97709.06;;;5.10;85.86
64679;BME280;51094;53.864;27.676;2023-12-20T12:09:13;97688.63;;;4.95;86.08
64679;BME280;51094;53.864;27.676;2023-12-20T12:11:42;97731.94;;;5.25;86.23
64679;BME280;51094;53.864;27.676;2023-12-20T12:14:10;97734.72;;;5.11;86.63
64679;BME280;51094;53.864;27.676;2023-12-20T12:16:37;97759.72;;;5.33;87.23
64679;BME280;51094;53.864;27.676;2023-12-20T12:19:20;97558.28;;;4.12;87.05
64679;BME280;51094;53.864;27.676;2023-12-20T12:21:48;97759.19;;;5.41;87.92
64679;BME280;51094;53.864;27.676;2023-12-20T12:24:15;97768.28;;;5.33;86.95
64679;BME280;51094;53.864;27.676;2023-12-20T12:26:42;97761.09;;;5.26;88.19
64679;BME280;51094;53.864;27.676;2023-12-20T12:29:09;97747.63;;;5.22;87.94
64679;BME280;51094;53.864;27.676;2023-12-20T12:31:36;97719.03;;;5.14;88.76
64679;BME280;51094;53.864;27.676;2023-12-20T12:34:03;97749.47;;;5.20;88.23
64679;BME280;51094;53.864;27.676;2023-12-20T12:36:31;97759.13;;;5.29;88.63
64679;BME280;51094;53.864;27.676;2023-12-20T12:38:58;97764.72;;;5.23;88.94
64679;BME280;51094;53.864;27.676;2023-12-20T12:41:29;97757.94;;;5.22;89.00
64679;BME280;51094;53.864;27.676;2023-12-20T12:43:56;97757.34;;;5.19;89.15
64679;BME280;51094;53.864;27.676;2023-12-20T12:46:29;97623.41;;;4.36;89.03
64679;BME280;51094;53.864;27.676;2023-12-20T12:48:56;97772.88;;;5.06;89.49
64679;BME280;51094;53.864;27.676;2023-12-20T12:51:23;97759.00;;;5.20;90.19
64679;BME280;51094;53.864;27.676;2023-12-20T12:53:50;97753.84;;;5.20;89.60
64679;BME280;51094;53.864;27.676;2023-12-20T12:56:17;97739.88;;;5.11;89.99
64679;BME280;51094;53.864;27.676;2023-12-20T12:58:45;97730.16;;;5.15;90.01
64679;BME280;51094;53.864;27.676;2023-12-20T13:01:12;97750.69;;;5.27;89.91
64679;BME280;51094;53.864;27.676;2023-12-20T13:03:39;97733.69;;;5.14;89.83
64679;BME280;51094;53.864;27.676;2023-12-20T13:06:07;97767.91;;;5.27;90.41
64679;BME280;51094;53.864;27.676;2023-12-20T13:08:35;97741.25;;;5.04;89.98
64679;BME280;51094;53.864;27.676;2023-12-20T13:11:03;97752.75;;;5.11;91.25
64679;BME280;51094;53.864;27.676;2023-12-20T13:13:31;97752.97;;;5.08;91.30